createdAt,value
2023-03-29T00:04:36.769Z,101436.00
2023-03-29T00:07:42.815Z,101436.44
2023-03-29T00:10:50.112Z,101452.47
2023-03-29T00:14:04.788Z,101459.09
2023-03-29T00:17:09.214Z,101462.75
2023-03-29T00:20:15.072Z,101453.03
2023-03-29T00:23:19.896Z,101444.03
2023-03-29T00:26:25.237Z,101453.31
2023-03-29T00:34:00.215Z,101436.34
2023-03-29T00:37:09.241Z,101444.84
2023-03-29T00:40:15.864Z,101446.78
2023-03-29T00:43:20.655Z,101448.47
2023-03-29T00:50:36.680Z,101435.50
2023-03-29T00:53:49.700Z,101444.72
2023-03-29T00:56:55.937Z,101435.72
2023-03-29T01:00:05.633Z,101434.19
2023-03-29T01:03:25.477Z,101428.59
2023-03-29T01:06:34.662Z,101430.94
2023-03-29T01:09:44.193Z,101417.69
2023-03-29T01:12:57.557Z,101421.44
2023-03-29T01:20:46.644Z,101414.16
2023-03-29T01:24:19.759Z,101402.09
2023-03-29T01:27:50.780Z,101403.13
2023-03-29T01:31:04.420Z,101405.91
2023-03-29T01:34:26.380Z,101405.31
2023-03-29T01:37:34.478Z,101402.81
2023-03-29T01:40:38.777Z,101399.50
2023-03-29T01:43:59.505Z,101397.00
2023-03-29T01:51:36.621Z,101410.03
2023-03-29T01:54:56.616Z,101414.91
2023-03-29T01:58:03.492Z,101414.13
2023-03-29T02:01:10.909Z,101409.63
2023-03-29T02:04:21.065Z,101411.28
2023-03-29T02:07:31.001Z,101411.91
2023-03-29T02:10:37.175Z,101416.28
2023-03-29T02:13:42.408Z,101411.28
2023-03-29T02:21:09.495Z,101413.66
2023-03-29T02:24:19.141Z,101407.91
2023-03-29T02:27:23.877Z,101394.66
2023-03-29T02:30:34.445Z,101391.34
2023-03-29T02:33:48.192Z,101408.81
2023-03-29T02:37:02.452Z,101400.69
2023-03-29T02:40:08.409Z,101410.81
2023-03-29T02:43:17.027Z,101411.50
2023-03-29T02:46:22.411Z,101415.91
2023-03-29T02:49:27.417Z,101422.47
2023-03-29T02:52:37.576Z,101421.38
2023-03-29T02:55:42.318Z,101436.25
2023-03-29T02:58:46.529Z,101437.19
2023-03-29T03:06:12.712Z,101438.28
2023-03-29T03:09:18.580Z,101447.47
2023-03-29T03:12:23.504Z,101438.13
2023-03-29T03:15:29.044Z,101442.78
2023-03-29T03:18:34.293Z,101440.09
2023-03-29T03:21:39.638Z,101435.41
2023-03-29T03:24:43.853Z,101439.75
2023-03-29T03:27:50.124Z,101438.09
2023-03-29T03:30:55.066Z,101441.69
2023-03-29T03:38:31.774Z,101441.38
2023-03-29T03:41:38.143Z,101445.78
2023-03-29T03:44:42.468Z,101446.72
2023-03-29T03:47:48.867Z,101445.56
2023-03-29T03:51:00.261Z,101457.16
2023-03-29T03:54:09.258Z,101463.16
2023-03-29T03:57:16.990Z,101458.19
2023-03-29T04:00:23.747Z,101455.78
2023-03-29T04:07:57.064Z,101452.41
2023-03-29T04:11:03.250Z,101440.94
2023-03-29T04:14:11.959Z,101443.50
2023-03-29T04:17:17.821Z,101439.44
2023-03-29T04:20:25.319Z,101439.28
2023-03-29T04:23:38.345Z,101438.97
2023-03-29T04:26:49.422Z,101440.75
2023-03-29T04:29:55.286Z,101446.59
2023-03-29T04:40:32.029Z,101458.94
2023-03-29T04:43:48.026Z,101459.78
2023-03-29T04:46:53.618Z,101466.97
2023-03-29T04:50:01.076Z,101463.72
2023-03-29T04:53:07.948Z,101457.28
2023-03-29T04:56:13.917Z,101464.22
2023-03-29T04:59:19.978Z,101465.88
2023-03-29T05:02:38.062Z,101463.91
2023-03-29T05:10:11.465Z,101472.66
2023-03-29T05:13:21.106Z,101471.13
2023-03-29T05:16:26.780Z,101462.00
2023-03-29T05:19:33.009Z,101468.31
2023-03-29T05:22:42.064Z,101460.16
2023-03-29T05:25:50.785Z,101454.00
2023-03-29T05:28:57.968Z,101460.97
2023-03-29T05:32:03.311Z,101455.19
2023-03-29T05:39:38.082Z,101454.44
2023-03-29T05:42:44.364Z,101456.25
2023-03-29T05:45:49.563Z,101445.19
2023-03-29T05:48:58.130Z,101450.47
2023-03-29T05:56:18.238Z,101458.09
2023-03-29T05:59:24.916Z,101453.84
2023-03-29T06:02:33.903Z,101458.75
2023-03-29T06:05:40.836Z,101461.56
2023-03-29T06:08:50.184Z,101460.28
2023-03-29T06:12:09.554Z,101465.03
2023-03-29T06:15:19.415Z,101461.53
2023-03-29T06:18:29.154Z,101470.38
2023-03-29T06:25:58.497Z,101472.72
2023-03-29T06:29:04.769Z,101465.50
2023-03-29T06:32:12.051Z,101478.59
2023-03-29T06:35:25.705Z,101479.19
2023-03-29T06:42:49.509Z,101474.97
2023-03-29T06:45:58.884Z,101479.78
2023-03-29T06:49:08.292Z,101486.06
2023-03-29T06:52:14.966Z,101478.41
2023-03-29T06:55:29.022Z,101479.22
2023-03-29T06:58:36.424Z,101480.09
2023-03-29T07:01:44.332Z,101478.69
2023-03-29T07:04:52.948Z,101483.97
2023-03-29T07:12:23.132Z,101496.03
2023-03-29T07:15:35.002Z,101494.91
2023-03-29T07:18:43.875Z,101500.28
2023-03-29T07:26:28.815Z,101511.34
2023-03-29T07:29:42.787Z,101521.31
2023-03-29T07:32:47.160Z,101511.34
2023-03-29T07:35:59.573Z,101530.78
2023-03-29T07:43:35.197Z,101522.34
2023-03-29T07:46:40.550Z,101517.34
2023-03-29T07:49:47.330Z,101511.41
2023-03-29T07:52:57.289Z,101509.31
2023-03-29T07:56:11.127Z,101511.81
2023-03-29T07:59:17.904Z,101510.81
2023-03-29T08:02:24.217Z,101502.34
2023-03-29T08:05:40.749Z,101509.88
2023-03-29T08:13:11.052Z,101508.94
2023-03-29T08:16:23.630Z,101504.59
2023-03-29T08:19:36.290Z,101499.69
2023-03-29T08:22:45.131Z,101500.25
2023-03-29T08:25:52.589Z,101500.53
2023-03-29T08:28:57.752Z,101499.31
2023-03-29T08:32:09.960Z,101504.16
2023-03-29T08:35:18.301Z,101506.53
2023-03-29T08:43:23.365Z,101492.66
2023-03-29T08:46:44.704Z,101489.38
2023-03-29T08:49:57.401Z,101483.69
2023-03-29T08:53:11.041Z,101478.66
2023-03-29T08:56:26.010Z,101476.56
2023-03-29T08:59:35.048Z,101477.84
2023-03-29T09:02:42.620Z,101475.62
2023-03-29T09:06:13.395Z,101465.78
2023-03-29T09:09:23.438Z,101471.56
2023-03-29T09:13:15.199Z,101450.06
2023-03-29T09:16:36.727Z,101450.19
2023-03-29T09:20:04.197Z,101449.44
2023-03-29T09:23:32.767Z,101450.44
2023-03-29T09:27:06.267Z,101441.88
2023-03-29T09:30:27.265Z,101445.03
2023-03-29T09:33:55.567Z,101440.13
2023-03-29T09:37:21.798Z,101439.44
2023-03-29T09:40:42.113Z,101441.31
2023-03-29T09:43:51.676Z,101438.59
2023-03-29T09:47:04.961Z,101431.81
2023-03-29T09:50:31.368Z,101433.41
2023-03-29T09:53:36.604Z,101435.34
2023-03-29T09:56:45.009Z,101426.03
2023-03-29T09:59:51.987Z,101420.28
2023-03-29T10:02:57.952Z,101421.25
2023-03-29T10:06:05.331Z,101410.37
2023-03-29T10:09:20.056Z,101411.66
2023-03-29T10:12:25.243Z,101400.22
2023-03-29T10:15:30.926Z,101399.97
2023-03-29T10:18:44.063Z,101391.16
2023-03-29T10:21:50.151Z,101388.19
2023-03-29T10:24:58.901Z,101395.69
2023-03-29T10:28:12.289Z,101385.84
2023-03-29T10:31:21.399Z,101379.44
2023-03-29T10:34:29.992Z,101393.34
2023-03-29T10:37:36.011Z,101376.25
2023-03-29T10:40:47.802Z,101368.16
2023-03-29T10:43:53.877Z,101379.37
2023-03-29T10:47:07.041Z,101371.31
2023-03-29T10:50:18.750Z,101364.41
2023-03-29T10:53:29.795Z,101351.81
2023-03-29T10:56:37.268Z,101360.84
2023-03-29T11:00:05.773Z,101361.69
2023-03-29T11:03:28.240Z,101365.72
2023-03-29T11:06:41.299Z,101368.56
2023-03-29T11:09:58.857Z,101356.34
2023-03-29T11:13:34.728Z,101349.53
2023-03-29T11:17:13.920Z,101342.84
2023-03-29T11:21:11.013Z,101331.87
2023-03-29T11:24:51.528Z,101349.19
2023-03-29T11:28:13.331Z,101346.22
2023-03-29T11:31:38.875Z,101342.84
2023-03-29T11:34:55.809Z,101347.03
2023-03-29T11:38:13.830Z,101344.78
2023-03-29T11:41:18.993Z,101330.94
2023-03-29T11:44:22.364Z,101331.56
2023-03-29T11:47:37.436Z,101319.66
2023-03-29T11:51:02.019Z,101314.22
2023-03-29T11:54:28.784Z,101311.37
2023-03-29T11:57:52.704Z,101310.97
2023-03-29T12:01:18.950Z,101308.13
2023-03-29T12:04:41.394Z,101293.78
2023-03-29T12:07:59.004Z,101300.25
2023-03-29T12:11:14.691Z,101295.34
2023-03-29T12:14:32.003Z,101296.62
2023-03-29T12:17:46.166Z,101274.63
2023-03-29T12:20:57.713Z,101277.22
2023-03-29T12:24:02.489Z,101274.50
2023-03-29T12:27:29.950Z,101267.22
2023-03-29T12:30:36.892Z,101263.19
2023-03-29T12:34:03.846Z,101255.09
2023-03-29T12:37:24.972Z,101257.13
2023-03-29T12:40:45.768Z,101257.19
2023-03-29T12:44:04.796Z,101255.16
2023-03-29T12:47:22.301Z,101239.28
2023-03-29T12:50:36.147Z,101249.75
2023-03-29T12:53:45.805Z,101238.72
2023-03-29T12:57:21.298Z,101239.03
2023-03-29T13:00:34.390Z,101236.84
2023-03-29T13:03:40.746Z,101234.66
2023-03-29T13:06:51.707Z,101238.31
2023-03-29T13:09:59.428Z,101234.03
2023-03-29T13:13:15.829Z,101231.25
2023-03-29T13:16:31.400Z,101219.59
2023-03-29T13:19:47.716Z,101226.81
2023-03-29T13:23:18.352Z,101216.28
2023-03-29T13:26:57.782Z,101212.19
2023-03-29T13:30:31.394Z,101211.53
2023-03-29T13:33:53.328Z,101207.00
2023-03-29T13:37:40.717Z,101207.25
2023-03-29T13:40:54.945Z,101204.69
2023-03-29T13:44:02.870Z,101197.78
2023-03-29T13:47:22.729Z,101191.47
2023-03-29T13:50:42.902Z,101192.50
2023-03-29T13:53:50.252Z,101182.34
2023-03-29T13:57:24.877Z,101187.28
2023-03-29T14:00:53.664Z,101179.22
2023-03-29T14:04:06.584Z,101182.56
2023-03-29T14:07:26.545Z,101181.28
2023-03-29T14:10:44.704Z,101177.84
2023-03-29T14:14:06.957Z,101177.97
2023-03-29T14:17:26.976Z,101174.56
2023-03-29T14:20:33.132Z,101164.31
2023-03-29T14:23:42.150Z,101171.22
2023-03-29T14:26:49.828Z,101167.25
2023-03-29T14:29:55.571Z,101170.50
2023-03-29T14:33:09.128Z,101161.66
2023-03-29T14:36:18.775Z,101158.22
2023-03-29T14:39:25.077Z,101158.63
2023-03-29T14:42:37.049Z,101161.06
2023-03-29T14:45:54.692Z,101157.81
2023-03-29T14:48:59.259Z,101153.50
2023-03-29T14:52:15.796Z,101147.44
2023-03-29T14:55:28.707Z,101157.56
2023-03-29T14:58:50.011Z,101142.66
2023-03-29T15:02:00.130Z,101144.53
2023-03-29T15:05:26.763Z,101154.06
2023-03-29T15:09:03.748Z,101142.09
2023-03-29T15:12:22.856Z,101137.56
2023-03-29T15:15:28.956Z,101131.91
2023-03-29T15:18:40.190Z,101130.00
2023-03-29T15:22:02.235Z,101128.53
2023-03-29T15:25:18.776Z,101133.03
2023-03-29T15:28:31.800Z,101123.31
2023-03-29T15:31:39.736Z,101124.06
2023-03-29T15:35:02.700Z,101127.56
2023-03-29T15:38:07.000Z,101124.19
2023-03-29T15:41:20.657Z,101130.00
2023-03-29T15:44:39.028Z,101126.44
2023-03-29T15:47:54.642Z,101120.12
2023-03-29T15:51:06.098Z,101115.88
2023-03-29T15:54:20.630Z,101112.03
2023-03-29T15:57:26.711Z,101111.13
2023-03-29T16:00:33.884Z,101102.84
2023-03-29T16:03:47.650Z,101100.16
2023-03-29T16:06:57.882Z,101100.38
2023-03-29T16:10:03.869Z,101102.28
2023-03-29T16:13:14.756Z,101105.50
2023-03-29T16:16:31.636Z,101090.91
2023-03-29T16:19:35.152Z,101097.69
2023-03-29T16:22:55.339Z,101086.53
2023-03-29T16:26:06.653Z,101096.06
2023-03-29T16:29:14.775Z,101100.41
2023-03-29T16:32:18.150Z,101093.34
2023-03-29T16:35:33.781Z,101092.44
2023-03-29T16:38:56.603Z,101082.41
2023-03-29T16:42:14.617Z,101095.44
2023-03-29T16:45:27.413Z,101078.91
2023-03-29T16:48:51.643Z,101085.50
2023-03-29T16:51:56.537Z,101087.13
2023-03-29T16:55:27.617Z,101087.75
2023-03-29T16:58:43.666Z,101094.09
2023-03-29T17:01:58.732Z,101095.44
2023-03-29T17:05:04.234Z,101087.28
2023-03-29T17:08:18.751Z,101089.53
2023-03-29T17:11:36.844Z,101088.41
2023-03-29T17:14:56.639Z,101088.19
2023-03-29T17:18:02.732Z,101086.94
2023-03-29T17:21:14.193Z,101084.69
2023-03-29T17:24:26.720Z,101081.13
2023-03-29T17:27:30.690Z,101091.22
2023-03-29T17:30:42.793Z,101098.97
2023-03-29T17:34:03.691Z,101092.50
2023-03-29T17:37:24.008Z,101106.53
2023-03-29T17:40:31.685Z,101104.53
2023-03-29T17:43:58.591Z,101106.97
2023-03-29T17:47:20.627Z,101105.16
2023-03-29T17:50:32.726Z,101111.28
2023-03-29T17:53:52.714Z,101110.34
2023-03-29T17:57:05.139Z,101110.03
2023-03-29T18:00:17.974Z,101113.38
2023-03-29T18:03:36.620Z,101115.97
2023-03-29T18:06:50.739Z,101115.63
2023-03-29T18:10:20.658Z,101111.16
2023-03-29T18:13:30.201Z,101118.81
2023-03-29T18:16:38.344Z,101121.34
2023-03-29T18:19:41.936Z,101128.97
2023-03-29T18:22:51.712Z,101125.41
2023-03-29T18:26:03.225Z,101142.78
2023-03-29T18:29:10.898Z,101140.84
2023-03-29T18:32:21.147Z,101147.19
2023-03-29T18:35:44.681Z,101144.81
2023-03-29T18:38:59.878Z,101136.28
2023-03-29T18:42:10.821Z,101131.81
2023-03-29T18:45:23.745Z,101144.59
2023-03-29T18:48:35.726Z,101141.66
2023-03-29T18:51:59.712Z,101138.75
2023-03-29T18:55:12.790Z,101139.38
2023-03-29T18:58:24.098Z,101140.28
2023-03-29T19:01:27.694Z,101142.72
2023-03-29T19:04:34.747Z,101139.00
2023-03-29T19:07:44.335Z,101147.53
2023-03-29T19:10:49.728Z,101149.88
2023-03-29T19:13:58.716Z,101154.19
2023-03-29T19:17:21.797Z,101155.00
2023-03-29T19:20:32.273Z,101153.03
2023-03-29T19:23:42.473Z,101153.75
2023-03-29T19:26:59.714Z,101152.66
2023-03-29T19:30:11.645Z,101147.47
2023-03-29T19:33:28.603Z,101141.63
2023-03-29T19:36:31.980Z,101145.53
2023-03-29T19:39:41.924Z,101147.78
2023-03-29T19:42:51.937Z,101147.53
2023-03-29T19:45:57.432Z,101152.81
2023-03-29T19:49:13.741Z,101151.84
2023-03-29T19:52:24.078Z,101149.06
2023-03-29T19:55:31.701Z,101148.19
2023-03-29T19:58:50.576Z,101137.78
2023-03-29T20:02:04.917Z,101135.19
2023-03-29T20:05:10.875Z,101129.84
2023-03-29T20:08:21.745Z,101126.44
2023-03-29T20:11:29.725Z,101132.59
2023-03-29T20:14:49.561Z,101135.03
2023-03-29T20:17:59.423Z,101127.41
2023-03-29T20:21:04.964Z,101126.09
2023-03-29T20:24:12.800Z,101131.38
2023-03-29T20:27:25.651Z,101124.41
2023-03-29T20:30:29.610Z,101124.31
2023-03-29T20:33:36.150Z,101121.78
2023-03-29T20:36:41.217Z,101121.00
2023-03-29T20:39:45.268Z,101111.31
2023-03-29T20:42:49.074Z,101115.53
2023-03-29T20:45:53.843Z,101112.88
2023-03-29T20:49:09.745Z,101114.22
2023-03-29T20:52:17.697Z,101106.34
2023-03-29T20:55:24.562Z,101109.84
2023-03-29T20:58:34.827Z,101113.25
2023-03-29T21:01:44.745Z,101100.84
2023-03-29T21:04:53.928Z,101109.25
2023-03-29T21:07:58.372Z,101112.41
2023-03-29T21:11:03.345Z,101105.34
2023-03-29T21:14:15.630Z,101103.09
2023-03-29T21:17:20.120Z,101099.53
2023-03-29T21:20:25.140Z,101097.56
2023-03-29T21:23:28.582Z,101098.28
2023-03-29T21:26:32.236Z,101102.59
2023-03-29T21:29:39.818Z,101106.97
2023-03-29T21:32:43.242Z,101100.63
2023-03-29T21:35:50.478Z,101095.00
2023-03-29T21:38:55.735Z,101087.78
2023-03-29T21:42:02.270Z,101089.75
2023-03-29T21:45:10.967Z,101087.53
2023-03-29T21:48:14.394Z,101091.47
2023-03-29T21:51:23.873Z,101086.62
2023-03-29T21:54:27.695Z,101086.53
2023-03-29T21:57:31.674Z,101088.31
2023-03-29T22:00:34.775Z,101086.34
2023-03-29T22:03:39.255Z,101099.75
2023-03-29T22:06:43.088Z,101093.50
2023-03-29T22:09:55.083Z,101092.34
2023-03-29T22:12:58.234Z,101090.66
2023-03-29T22:16:04.039Z,101084.03
2023-03-29T22:19:09.753Z,101097.69
2023-03-29T22:22:14.926Z,101103.50
2023-03-29T22:25:24.467Z,101097.97
2023-03-29T22:28:27.493Z,101100.97
2023-03-29T22:31:31.941Z,101108.56
2023-03-29T22:34:36.382Z,101094.72
2023-03-29T22:37:42.590Z,101109.19
2023-03-29T22:40:47.452Z,101102.03
2023-03-29T22:43:55.389Z,101106.03
2023-03-29T22:46:59.146Z,101114.63
2023-03-29T22:50:02.328Z,101114.06
2023-03-29T22:53:05.380Z,101110.41
2023-03-29T22:56:09.297Z,101112.91
2023-03-29T22:59:13.796Z,101110.09
2023-03-29T23:02:17.339Z,101101.16
2023-03-29T23:05:20.106Z,101110.41
2023-03-29T23:08:24.396Z,101106.91
2023-03-29T23:11:27.705Z,101102.72
2023-03-29T23:14:31.249Z,101107.91
2023-03-29T23:17:35.070Z,101098.06
2023-03-29T23:20:37.864Z,101101.34
2023-03-29T23:23:41.785Z,101101.53
2023-03-29T23:26:44.437Z,101077.50
2023-03-29T23:29:47.941Z,101099.06
2023-03-29T23:32:52.563Z,101099.62
2023-03-29T23:35:55.543Z,101092.34
2023-03-29T23:38:59.639Z,101095.28
2023-03-29T23:42:03.685Z,101102.06
2023-03-29T23:45:08.832Z,101098.69
2023-03-29T23:48:11.594Z,101095.09
2023-03-29T23:51:18.193Z,101090.72
2023-03-29T23:54:21.334Z,101089.12
2023-03-29T23:57:24.199Z,101090.91
